createdAt,value
2023-03-30T00:02:51.163Z,46102.19
2023-03-30T00:07:56.230Z,46058.25
2023-03-30T00:13:02.547Z,46030.31
2023-03-30T00:18:08.000Z,46018.31
2023-03-30T00:23:12.455Z,45990.38
2023-03-30T00:28:18.136Z,45954.44
2023-03-30T00:33:33.503Z,45920.47
2023-03-30T00:38:48.540Z,45886.53
2023-03-30T00:44:02.609Z,45882.53
2023-03-30T00:49:12.466Z,45858.56
2023-03-30T00:54:20.241Z,45890.53
2023-03-30T00:59:25.914Z,45870.56
2023-03-30T01:04:29.951Z,45874.56
2023-03-30T01:09:34.706Z,45866.56
2023-03-30T01:14:41.492Z,45864.56
2023-03-30T01:20:15.184Z,45874.56
2023-03-30T01:25:59.662Z,45862.56
2023-03-30T01:31:30.295Z,45886.53
2023-03-30T01:37:09.542Z,45868.56
2023-03-30T01:42:20.927Z,45866.56
2023-03-30T01:47:33.856Z,45850.59
2023-03-30T01:52:42.735Z,45856.56
2023-03-30T01:57:54.682Z,45880.53
2023-03-30T02:03:05.795Z,45844.59
2023-03-30T02:08:14.292Z,45884.53
2023-03-30T02:13:22.623Z,45890.53
2023-03-30T02:18:27.411Z,45874.56
2023-03-30T02:23:36.894Z,45854.59
2023-03-30T02:28:42.534Z,45886.53
2023-03-30T02:34:02.943Z,45886.53
2023-03-30T02:39:18.745Z,45898.50
2023-03-30T02:44:39.042Z,45902.50
2023-03-30T02:49:54.748Z,45882.53
2023-03-30T02:55:07.358Z,45894.53
2023-03-30T03:00:18.566Z,45878.53
2023-03-30T03:05:24.485Z,45842.59
2023-03-30T03:10:49.516Z,45882.53
2023-03-30T03:15:57.236Z,45882.53
2023-03-30T03:21:05.056Z,45888.53
2023-03-30T03:26:10.287Z,45904.50
2023-03-30T03:31:17.020Z,45856.56
2023-03-30T03:36:23.962Z,45882.53
2023-03-30T03:41:30.556Z,45852.59
2023-03-30T03:46:36.638Z,45884.53
2023-03-30T03:51:41.494Z,45902.50
2023-03-30T03:56:46.009Z,45882.53
2023-03-30T04:01:52.047Z,45892.53
2023-03-30T04:06:56.498Z,45894.53
2023-03-30T04:12:00.765Z,45876.53
2023-03-30T04:17:29.964Z,45882.53
2023-03-30T04:23:03.605Z,45866.56
2023-03-30T04:28:40.418Z,45848.59
2023-03-30T04:34:06.486Z,45844.59
2023-03-30T04:39:11.579Z,45816.63
2023-03-30T04:44:34.888Z,45818.63
2023-03-30T04:49:58.623Z,45822.63
2023-03-30T04:55:21.439Z,45784.69
2023-03-30T05:00:35.001Z,45814.66
2023-03-30T05:05:58.877Z,45784.69
2023-03-30T05:11:41.887Z,45784.69
2023-03-30T05:16:56.211Z,45752.75
2023-03-30T05:22:09.667Z,45758.72
2023-03-30T05:27:31.645Z,45738.75
2023-03-30T05:32:45.776Z,45730.78
2023-03-30T05:38:14.024Z,45722.78
2023-03-30T05:43:37.485Z,45686.84
2023-03-30T05:48:52.241Z,45718.78
2023-03-30T05:54:06.650Z,45690.84
2023-03-30T05:59:33.625Z,45706.81
2023-03-30T06:05:01.806Z,45704.81
2023-03-30T06:10:09.050Z,45682.84
2023-03-30T06:15:14.146Z,45698.81
2023-03-30T06:20:29.650Z,45724.78
2023-03-30T06:25:37.325Z,45702.81
2023-03-30T06:30:42.608Z,45670.88
2023-03-30T06:35:51.127Z,45690.84
2023-03-30T06:40:59.946Z,45718.78
2023-03-30T06:46:07.390Z,45708.81
2023-03-30T06:51:14.821Z,45706.81
2023-03-30T06:56:22.770Z,45686.84
2023-03-30T07:01:46.236Z,45698.81
2023-03-30T07:07:10.947Z,45686.84
2023-03-30T07:12:17.015Z,45674.88
2023-03-30T07:17:26.792Z,45680.84
2023-03-30T07:22:31.645Z,45567.03
2023-03-30T07:27:38.231Z,45567.03
2023-03-30T07:32:42.717Z,45461.22
2023-03-30T07:37:51.015Z,45413.31
2023-03-30T07:42:57.525Z,45371.38
2023-03-30T07:48:03.176Z,45323.44
2023-03-30T07:53:08.040Z,45387.34
2023-03-30T07:58:15.619Z,45593.00
2023-03-30T08:03:20.328Z,45642.91
2023-03-30T08:08:25.083Z,45706.81
2023-03-30T08:13:33.114Z,45706.81
2023-03-30T08:18:38.624Z,45642.91
2023-03-30T08:23:42.843Z,45601.00
2023-03-30T08:28:48.681Z,45593.00
2023-03-30T08:33:53.296Z,45563.06
2023-03-30T08:38:58.175Z,45527.09
2023-03-30T08:44:07.353Z,45549.06
2023-03-30T08:49:18.103Z,45595.00
2023-03-30T08:54:26.008Z,45521.13
2023-03-30T08:59:42.423Z,45539.09
2023-03-30T09:05:02.137Z,45515.13
2023-03-30T09:10:13.374Z,45477.19
2023-03-30T09:15:21.944Z,45447.25
2023-03-30T09:20:28.720Z,45443.25
2023-03-30T09:25:40.875Z,45461.22
2023-03-30T09:30:49.781Z,45453.22
2023-03-30T09:36:15.272Z,45435.25
2023-03-30T09:41:33.332Z,45415.28
2023-03-30T09:46:40.620Z,45391.34
2023-03-30T09:51:57.833Z,45373.38
2023-03-30T09:57:02.235Z,45391.34
2023-03-30T10:02:21.170Z,45443.25
2023-03-30T10:07:28.141Z,45371.38
2023-03-30T10:12:32.753Z,45355.41
2023-03-30T10:24:51.791Z,45379.34
2023-03-30T10:29:56.125Z,45349.41
2023-03-30T10:35:05.583Z,45387.34
2023-03-30T10:40:18.909Z,45353.41
2023-03-30T10:45:29.808Z,45287.50
2023-03-30T10:50:41.328Z,45303.47
2023-03-30T10:55:53.749Z,45393.34
2023-03-30T11:01:11.854Z,45327.44
2023-03-30T11:06:21.084Z,45323.44
2023-03-30T11:11:34.596Z,45217.63
2023-03-30T11:16:47.895Z,45271.53
2023-03-30T11:21:59.793Z,45331.44
2023-03-30T11:27:12.392Z,45333.44
2023-03-30T11:32:26.331Z,45339.44
2023-03-30T11:37:35.605Z,45335.44
2023-03-30T11:42:42.244Z,45187.69
2023-03-30T11:48:04.092Z,45271.53
2023-03-30T11:53:18.557Z,45307.47
2023-03-30T11:58:33.638Z,45279.53
2023-03-30T12:03:42.836Z,45231.59
2023-03-30T12:09:01.271Z,45255.56
2023-03-30T12:14:28.532Z,45253.56
2023-03-30T12:19:55.186Z,45233.59
2023-03-30T12:25:05.300Z,45351.41
2023-03-30T12:30:16.675Z,45359.38
2023-03-30T12:35:56.834Z,45391.34
2023-03-30T12:41:14.882Z,45405.31
2023-03-30T12:46:28.364Z,45413.31
2023-03-30T12:51:54.162Z,45397.31
2023-03-30T12:57:07.054Z,45379.34
2023-03-30T13:02:50.889Z,45367.38
2023-03-30T13:07:58.896Z,45367.38
2023-03-30T13:13:05.059Z,45367.38
2023-03-30T13:18:34.577Z,45367.38
2023-03-30T13:23:40.179Z,45375.38
2023-03-30T13:28:57.180Z,45413.31
2023-03-30T13:34:14.613Z,45427.28
2023-03-30T13:39:24.388Z,45401.31
2023-03-30T13:44:42.047Z,45375.38
2023-03-30T13:49:56.687Z,45351.41
2023-03-30T13:55:01.836Z,45345.41
2023-03-30T14:00:11.176Z,45337.44
2023-03-30T14:05:21.851Z,45331.44
2023-03-30T14:10:26.749Z,45321.44
2023-03-30T14:15:36.330Z,45327.44
2023-03-30T14:20:49.656Z,45323.44
2023-03-30T14:25:59.183Z,45323.44
2023-03-30T14:31:06.959Z,45311.47
2023-03-30T14:36:16.618Z,45263.56
2023-03-30T14:41:22.973Z,45255.56
2023-03-30T14:46:40.470Z,45167.72
2023-03-30T14:51:49.398Z,45155.75
2023-03-30T14:56:59.048Z,45071.88
2023-03-30T15:02:03.713Z,44978.06
2023-03-30T15:07:13.417Z,44896.19
2023-03-30T15:12:22.838Z,44872.25
2023-03-30T15:17:30.257Z,44792.41
2023-03-30T15:22:39.016Z,44726.50
2023-03-30T15:27:47.171Z,44572.81
2023-03-30T15:32:55.947Z,44221.50
2023-03-30T15:38:03.668Z,43886.16
2023-03-30T15:43:16.459Z,43680.59
2023-03-30T15:48:23.976Z,43279.47
2023-03-30T15:53:41.737Z,42942.25
2023-03-30T15:58:46.620Z,42505.28
2023-03-30T16:03:57.004Z,42281.81
2023-03-30T16:09:08.984Z,42042.41
2023-03-30T16:14:16.357Z,41852.91
2023-03-30T16:19:21.133Z,41591.59
2023-03-30T16:24:26.658Z,41328.31
2023-03-30T16:29:31.710Z,41170.72
2023-03-30T16:34:36.967Z,41164.75
2023-03-30T16:39:43.344Z,40937.38
2023-03-30T16:44:47.491Z,40795.78
2023-03-30T16:49:52.073Z,40682.13
2023-03-30T16:54:58.044Z,40576.41
2023-03-30T17:00:02.813Z,40460.75
2023-03-30T17:05:08.220Z,40263.34
2023-03-30T17:10:21.128Z,40117.78
2023-03-30T17:15:26.916Z,39996.16
2023-03-30T17:20:37.330Z,39944.31
2023-03-30T17:25:43.232Z,39912.41
2023-03-30T17:30:47.425Z,39840.63
2023-03-30T17:35:55.075Z,39858.59
2023-03-30T17:41:01.892Z,39880.50
2023-03-30T17:46:06.908Z,39876.53
2023-03-30T17:51:11.763Z,39884.50
2023-03-30T17:56:17.634Z,39900.44
2023-03-30T18:01:21.915Z,39840.63
2023-03-30T18:06:26.264Z,39886.50
2023-03-30T18:11:32.770Z,39898.47
2023-03-30T18:16:40.716Z,39836.66
2023-03-30T18:21:45.386Z,39942.31
2023-03-30T18:26:51.228Z,39988.19
2023-03-30T18:31:55.648Z,40020.09
2023-03-30T18:36:59.841Z,40057.97
2023-03-30T18:42:05.810Z,40091.88
2023-03-30T18:47:11.298Z,40061.97
2023-03-30T18:52:16.976Z,40048.00
2023-03-30T18:57:22.651Z,40024.06
2023-03-30T19:02:27.507Z,40036.03
2023-03-30T19:07:31.992Z,40077.91
2023-03-30T19:12:37.788Z,40059.97
2023-03-30T19:17:42.413Z,40085.88
2023-03-30T19:22:47.029Z,40048.00
2023-03-30T19:28:03.317Z,40065.94
2023-03-30T19:33:12.234Z,40044.00
2023-03-30T19:38:17.066Z,39956.28
2023-03-30T19:43:22.824Z,39916.41
2023-03-30T19:48:27.765Z,39846.63
2023-03-30T19:53:31.901Z,39860.56
2023-03-30T19:58:37.725Z,39896.47
2023-03-30T20:03:42.166Z,39874.53
2023-03-30T20:08:47.152Z,39904.44
2023-03-30T20:13:54.120Z,39924.38
2023-03-30T20:18:58.984Z,40004.13
2023-03-30T20:24:03.574Z,39984.19
2023-03-30T20:29:09.280Z,39994.16
2023-03-30T20:34:15.708Z,40075.91
2023-03-30T20:39:22.420Z,40115.78
2023-03-30T20:44:31.977Z,40171.63
2023-03-30T20:49:38.288Z,40197.53
2023-03-30T20:54:44.700Z,40215.50
2023-03-30T20:59:52.822Z,40195.56
2023-03-30T21:04:58.205Z,40203.53
2023-03-30T21:10:02.547Z,40221.47
2023-03-30T21:15:09.071Z,40259.34
2023-03-30T21:20:14.548Z,40420.88
2023-03-30T21:25:18.900Z,40341.13
2023-03-30T21:30:24.484Z,40307.22
2023-03-30T21:35:28.705Z,40311.19
2023-03-30T21:40:32.958Z,40359.06
2023-03-30T21:45:38.520Z,40367.03
2023-03-30T21:50:43.096Z,40369.03
2023-03-30T21:55:48.383Z,40418.88
2023-03-30T22:01:08.529Z,40384.97
2023-03-30T22:06:18.022Z,40386.97
2023-03-30T22:11:24.210Z,40414.91
2023-03-30T22:16:33.393Z,40438.81
2023-03-30T22:21:38.171Z,40448.78
2023-03-30T22:26:42.652Z,40460.75
2023-03-30T22:31:48.319Z,40482.69
2023-03-30T22:36:53.125Z,40474.72
2023-03-30T22:41:57.433Z,40556.47
2023-03-30T22:47:03.306Z,40486.69
2023-03-30T22:52:08.030Z,40496.66
2023-03-30T22:57:12.838Z,40516.59
2023-03-30T23:02:18.528Z,40514.59
2023-03-30T23:07:22.720Z,40502.63
2023-03-30T23:12:27.014Z,40542.53
2023-03-30T23:17:32.816Z,40540.53
2023-03-30T23:22:38.237Z,40530.56
2023-03-30T23:27:42.478Z,40510.63
2023-03-30T23:32:48.136Z,40518.59
2023-03-30T23:37:52.872Z,40584.41
2023-03-30T23:42:57.666Z,40564.47
2023-03-30T23:48:03.179Z,40584.41
2023-03-30T23:53:07.452Z,40592.38
2023-03-30T23:58:11.840Z,40584.41
